Time;durP1;ratioP1;P1;durP2;ratioP2;P2;SDS_P1;SDS_P2;PMS_P1;PMS_P2;Temp;Humidity;BMP_temperature;BMP_pressure;BME280_temperature;BME280_humidity;BME280_pressure;Samples;Min_cycle;Max_cycle;Signal;HPM_P1;HPM_P2
2022/04/05 00:00:21;;;;;;;6.70;2.10;;;10.30;88.50;;;;;;4937496;29;20051;-69
2022/04/05 00:02:48;;;;;;;4.18;1.67;;;10.30;88.40;;;;;;4935871;29;20051;-70
2022/04/05 00:05:17;;;;;;;5.03;2.03;;;10.30;88.40;;;;;;4940737;29;20042;-69
2022/04/05 00:07:45;;;;;;;6.15;1.55;;;10.30;88.40;;;;;;4953602;29;20043;-69
2022/04/05 00:10:13;;;;;;;3.75;1.52;;;10.30;88.40;;;;;;4946546;29;20039;-69
2022/04/05 00:12:41;;;;;;;2.50;1.73;;;10.30;88.40;;;;;;4950168;28;20047;-69
2022/04/05 00:15:09;;;;;;;5.30;1.90;;;10.20;88.40;;;;;;4951397;29;20409;-69
2022/04/05 00:17:38;;;;;;;3.53;1.58;;;10.30;88.40;;;;;;4952583;29;20049;-68
2022/04/05 00:20:07;;;;;;;4.88;1.75;;;10.30;88.40;;;;;;4938085;29;20407;-70
2022/04/05 00:22:35;;;;;;;6.10;2.03;;;10.30;88.40;;;;;;4941936;29;20047;-70
2022/04/05 00:25:03;;;;;;;3.22;1.70;;;10.30;88.30;;;;;;4941006;29;20055;-70
2022/04/05 00:27:30;;;;;;;4.70;1.88;;;10.30;88.40;;;;;;4949261;29;20062;-70
2022/04/05 00:29:59;;;;;;;6.22;1.80;;;10.30;88.30;;;;;;4937024;29;20066;-70
2022/04/05 00:32:27;;;;;;;3.65;1.58;;;10.30;88.40;;;;;;4934285;29;20066;-70
2022/04/05 00:34:55;;;;;;;3.28;1.80;;;10.30;88.30;;;;;;4935906;29;20102;-70
2022/04/05 00:37:23;;;;;;;3.97;1.77;;;10.30;88.40;;;;;;4934400;29;20047;-70
2022/04/05 00:39:50;;;;;;;5.82;1.70;;;10.30;88.40;;;;;;4946399;29;20051;-70
2022/04/05 00:42:18;;;;;;;5.15;1.90;;;10.30;88.40;;;;;;4948313;29;20074;-71
2022/04/05 00:44:46;;;;;;;5.43;1.80;;;10.30;88.40;;;;;;4955051;29;20054;-70
2022/04/05 00:47:23;;;;;;;4.40;1.73;;;10.30;88.40;;;;;;4935000;29;20044;-70
2022/04/05 00:49:53;;;;;;;10.50;2.45;;;10.30;88.50;;;;;;4938695;29;20071;-70
2022/04/05 00:52:22;;;;;;;5.72;2.17;;;10.20;88.50;;;;;;4950450;29;20206;-70
2022/04/05 00:54:51;;;;;;;4.25;1.67;;;10.20;88.70;;;;;;4939612;29;20039;-69
2022/04/05 00:57:24;;;;;;;4.68;2.10;;;10.20;88.70;;;;;;4954153;29;20055;-68
2022/04/05 00:59:56;;;;;;;6.57;2.70;;;10.20;88.80;;;;;;4943979;29;20406;-69
2022/04/05 01:02:28;;;;;;;4.20;1.67;;;10.20;88.90;;;;;;4951458;28;20059;-69
2022/04/05 01:04:56;;;;;;;6.40;2.30;;;10.20;88.90;;;;;;4952876;29;20500;-69
2022/04/05 01:07:25;;;;;;;4.63;2.20;;;10.20;89.00;;;;;;4953728;28;20059;-69
2022/04/05 01:09:56;;;;;;;10.18;2.63;;;10.20;89.00;;;;;;4945689;29;20043;-69
2022/04/05 01:12:23;;;;;;;4.57;2.08;;;10.20;89.00;;;;;;4953815;29;20051;-69
2022/04/05 01:14:52;;;;;;;7.65;2.40;;;10.20;89.10;;;;;;4936981;29;20055;-69
2022/04/05 01:17:20;;;;;;;5.75;2.50;;;10.20;89.10;;;;;;4935987;29;20052;-69
2022/04/05 01:19:47;;;;;;;7.88;2.50;;;10.10;89.10;;;;;;4935031;29;20054;-69
2022/04/05 01:22:15;;;;;;;5.25;2.65;;;10.10;89.10;;;;;;4934977;29;20059;-69
2022/04/05 01:24:43;;;;;;;5.68;2.72;;;10.10;89.30;;;;;;4940825;29;20039;-69
2022/04/05 01:27:17;;;;;;;8.13;2.88;;;10.10;89.30;;;;;;4938042;28;20055;-70
2022/04/05 01:29:47;;;;;;;9.73;2.67;;;10.10;89.30;;;;;;4948630;29;20050;-69
2022/04/05 01:32:15;;;;;;;4.93;2.50;;;10.10;89.40;;;;;;4968724;28;20047;-69
2022/04/05 01:34:43;;;;;;;5.90;2.60;;;10.10;89.40;;;;;;4937167;29;20047;-69
2022/04/05 01:37:11;;;;;;;8.60;2.45;;;10.10;89.40;;;;;;4934781;29;20051;-70
2022/04/05 01:39:40;;;;;;;5.22;2.10;;;10.10;89.50;;;;;;4936867;29;20070;-70
2022/04/05 01:42:12;;;;;;;5.57;2.42;;;10.10;89.40;;;;;;4953732;29;20043;-69
2022/04/05 01:44:41;;;;;;;8.35;3.03;;;10.00;89.50;;;;;;4952437;29;20063;-70
2022/04/05 01:47:10;;;;;;;9.95;2.83;;;10.10;89.40;;;;;;4953308;29;20563;-69
2022/04/05 01:49:39;;;;;;;10.15;3.30;;;10.00;89.50;;;;;;4953470;29;20059;-70
2022/04/05 01:52:09;;;;;;;10.00;3.13;;;10.10;89.50;;;;;;4934762;29;20505;-69
2022/04/05 01:54:38;;;;;;;10.20;3.55;;;10.00;89.50;;;;;;4949623;29;20070;-70
2022/04/05 01:57:06;;;;;;;7.57;2.97;;;10.10;89.50;;;;;;4958630;28;20514;-70
2022/04/05 01:59:36;;;;;;;9.35;3.33;;;10.00;89.50;;;;;;4936662;28;20420;-69
2022/04/05 02:02:08;;;;;;;11.75;3.45;;;10.00;89.60;;;;;;4934496;29;20055;-69
2022/04/05 02:04:36;;;;;;;6.88;3.20;;;10.00;89.60;;;;;;4942853;29;20068;-70
2022/04/05 02:07:10;;;;;;;9.27;3.55;;;10.00;89.50;;;;;;4952972;29;20059;-69
2022/04/05 02:09:38;;;;;;;5.97;3.42;;;10.00;89.50;;;;;;4950993;28;20498;-69
2022/04/05 02:12:07;;;;;;;9.60;3.58;;;10.00;89.50;;;;;;4934449;29;20047;-69
2022/04/05 02:14:57;;;;;;;11.90;3.92;;;10.10;89.50;;;;;;4915032;29;20056;-69
2022/04/05 02:17:42;;;;;;;8.93;3.63;;;10.00;89.50;;;;;;4916468;29;20379;-71
2022/04/05 02:20:15;;;;;;;10.38;4.03;;;10.00;89.50;;;;;;4897491;29;20529;-69
2022/04/05 02:22:43;;;;;;;10.43;3.78;;;9.90;89.60;;;;;;4900928;29;20067;-71
2022/04/05 02:25:22;;;;;;;6.10;4.30;;;10.00;89.70;;;;;;4912320;29;20044;-70
2022/04/05 02:27:50;;;;;;;11.65;4.47;;;9.90;89.70;;;;;;4905442;29;20056;-69
2022/04/05 02:30:25;;;;;;;12.20;4.70;;;9.90;89.80;;;;;;4916659;29;20421;-69
2022/04/05 02:32:55;;;;;;;13.52;4.60;;;9.90;89.80;;;;;;4900214;29;20064;-69
2022/04/05 02:35:25;;;;;;;11.50;4.53;;;9.90;89.90;;;;;;4900610;29;20048;-69
2022/04/05 02:37:53;;;;;;;9.52;4.68;;;9.90;90.00;;;;;;4900966;29;20063;-69
2022/04/05 02:40:22;;;;;;;9.70;4.60;;;9.80;90.00;;;;;;4900702;29;20048;-69
2022/04/05 02:42:54;;;;;;;10.13;4.60;;;9.80;90.10;;;;;;4915944;29;20095;-69
2022/04/05 02:45:23;;;;;;;9.18;3.95;;;9.80;90.10;;;;;;4900569;29;20052;-69
2022/04/05 02:47:52;;;;;;;10.20;4.38;;;9.80;90.20;;;;;;4915734;29;20060;-69
2022/04/05 02:50:21;;;;;;;8.68;4.20;;;9.80;90.20;;;;;;4900786;29;20059;-69
2022/04/05 02:52:50;;;;;;;9.18;3.88;;;9.80;90.30;;;;;;4931865;28;20490;-69
2022/04/05 02:55:19;;;;;;;9.55;3.90;;;9.80;90.30;;;;;;4938948;29;20050;-69
2022/04/05 02:57:49;;;;;;;8.23;2.92;;;9.80;90.30;;;;;;4969636;28;20066;-69
2022/04/05 03:00:28;;;;;;;9.55;3.85;;;9.80;90.30;;;;;;4952423;29;20473;-69
2022/04/05 03:02:58;;;;;;;7.85;3.97;;;9.80;90.30;;;;;;4939055;29;20047;-69
2022/04/05 03:05:26;;;;;;;8.93;3.50;;;9.80;90.30;;;;;;4952937;29;20051;-68
2022/04/05 03:07:59;;;;;;;8.00;3.38;;;9.80;90.30;;;;;;4950901;29;20048;-68
2022/04/05 03:10:29;;;;;;;8.48;3.40;;;9.80;90.40;;;;;;4937226;29;20414;-68
2022/04/05 03:12:57;;;;;;;9.52;3.22;;;9.80;90.40;;;;;;4954523;28;20056;-69
2022/04/05 03:15:25;;;;;;;4.93;2.22;;;9.80;90.40;;;;;;4936800;29;20047;-69
2022/04/05 03:17:58;;;;;;;6.88;2.85;;;9.70;90.40;;;;;;4935711;29;20055;-69
2022/04/05 03:20:29;;;;;;;11.88;2.63;;;9.70;90.40;;;;;;4937350;29;20075;-69
2022/04/05 03:22:59;;;;;;;8.50;3.42;;;9.70;90.40;;;;;;4935463;29;20055;-69
2022/04/05 03:25:27;;;;;;;7.47;2.30;;;9.70;90.40;;;;;;4935698;29;20054;-69
2022/04/05 03:28:01;;;;;;;6.68;2.13;;;9.70;90.50;;;;;;4935742;29;20052;-69
2022/04/05 03:30:31;;;;;;;8.15;2.65;;;9.70;90.50;;;;;;4936973;29;20063;-69
2022/04/05 03:33:02;;;;;;;8.25;2.50;;;9.70;90.50;;;;;;4949160;29;20059;-69
2022/04/05 03:35:31;;;;;;;5.88;2.38;;;9.70;90.50;;;;;;4966224;28;20067;-69
2022/04/05 03:38:00;;;;;;;5.95;2.35;;;9.70;90.60;;;;;;4935611;29;20052;-69
2022/04/05 03:40:29;;;;;;;8.15;2.38;;;9.70;90.60;;;;;;4936140;29;20067;-69
2022/04/05 03:42:59;;;;;;;7.60;2.70;;;9.60;90.60;;;;;;4951713;29;20047;-69
2022/04/05 03:45:27;;;;;;;8.02;2.92;;;9.60;90.70;;;;;;4935783;29;20383;-69
2022/04/05 03:47:56;;;;;;;4.47;1.98;;;9.60;90.70;;;;;;4919096;29;20052;-69
2022/04/05 03:50:24;;;;;;;6.63;2.53;;;9.60;90.70;;;;;;4935696;29;20058;-69
2022/04/05 03:52:54;;;;;;;5.38;2.17;;;9.60;90.80;;;;;;4936592;29;20482;-69
2022/04/05 03:55:28;;;;;;;4.22;2.17;;;9.60;90.80;;;;;;4935307;29;20047;-69
2022/04/05 03:57:57;;;;;;;3.55;2.00;;;9.60;90.80;;;;;;4949178;29;20059;-69
2022/04/05 04:00:28;;;;;;;6.70;2.50;;;9.60;90.80;;;;;;4937090;29;20147;-69
2022/04/05 04:03:12;;;;;;;4.47;1.58;;;9.60;90.80;;;;;;4961479;28;20063;-69
2022/04/05 04:05:40;;;;;;;4.70;1.80;;;9.60;90.80;;;;;;4935396;29;20113;-69
2022/04/05 04:08:10;;;;;;;11.23;1.70;;;9.60;90.80;;;;;;4950785;29;20052;-69
2022/04/05 04:10:38;;;;;;;3.35;1.35;;;9.60;90.80;;;;;;4970364;28;20039;-69
2022/04/05 04:13:07;;;;;;;6.47;1.52;;;9.60;90.80;;;;;;4970323;28;20047;-69
2022/04/05 04:15:40;;;;;;;6.23;1.73;;;9.60;90.70;;;;;;4935702;29;20048;-69
2022/04/05 04:18:07;;;;;;;6.68;1.73;;;9.60;90.70;;;;;;4919439;29;20293;-69
2022/04/05 04:20:38;;;;;;;8.05;1.48;;;9.60;90.60;;;;;;4919078;29;20055;-69
2022/04/05 04:23:09;;;;;;;4.32;1.52;;;9.50;90.60;;;;;;4935380;29;20043;-69
2022/04/05 04:25:45;;;;;;;3.30;1.17;;;9.50;90.60;;;;;;4953083;29;20051;-69
2022/04/05 04:28:13;;;;;;;6.20;1.60;;;9.60;90.60;;;;;;4953778;29;20066;-69
2022/04/05 04:30:41;;;;;;;8.63;1.88;;;9.50;90.50;;;;;;4953374;29;20058;-69
2022/04/05 04:33:09;;;;;;;6.22;1.40;;;9.50;90.50;;;;;;4948465;29;20044;-69
2022/04/05 04:35:41;;;;;;;6.03;1.50;;;9.50;90.50;;;;;;4936347;29;20047;-69
2022/04/05 04:38:08;;;;;;;6.63;1.63;;;9.50;90.50;;;;;;4936309;29;20052;-69
2022/04/05 04:40:36;;;;;;;5.80;1.63;;;9.50;90.50;;;;;;4921153;29;20048;-69
2022/04/05 04:43:04;;;;;;;7.82;1.50;;;9.50;90.50;;;;;;4955228;29;20055;-68
2022/04/05 04:45:32;;;;;;;7.00;1.77;;;9.50;90.40;;;;;;4942122;29;20055;-69
2022/04/05 04:47:59;;;;;;;8.68;2.00;;;9.50;90.40;;;;;;4953023;29;20039;-69
2022/04/05 04:50:27;;;;;;;7.90;2.00;;;9.50;90.40;;;;;;4953436;29;20047;-70
2022/04/05 04:52:54;;;;;;;7.63;1.92;;;9.50;90.40;;;;;;4935205;29;20056;-70
2022/04/05 04:55:24;;;;;;;7.57;1.70;;;9.40;90.40;;;;;;4950122;29;20066;-70
2022/04/05 04:58:09;;;;;;;9.75;2.20;;;9.50;90.40;;;;;;4953379;29;20051;-70
2022/04/05 05:00:37;;;;;;;6.88;1.90;;;9.40;90.30;;;;;;4939348;29;20048;-69
2022/04/05 05:03:04;;;;;;;7.15;1.75;;;9.40;90.30;;;;;;4950478;29;20047;-70
2022/04/05 05:05:32;;;;;;;8.68;1.77;;;9.40;90.20;;;;;;4950821;29;20048;-70
2022/04/05 05:08:00;;;;;;;12.60;2.88;;;9.50;90.20;;;;;;4946124;29;20051;-69
2022/04/05 05:10:28;;;;;;;7.60;2.05;;;9.50;90.00;;;;;;4953093;29;20051;-69
2022/04/05 05:12:56;;;;;;;8.68;1.85;;;9.50;89.90;;;;;;4943166;29;20047;-69
2022/04/05 05:15:24;;;;;;;12.45;2.13;;;9.50;89.80;;;;;;4939083;29;20498;-69
2022/04/05 05:17:53;;;;;;;7.82;1.85;;;9.50;89.70;;;;;;4946157;29;20047;-69
2022/04/05 05:20:20;;;;;;;6.93;2.15;;;9.50;89.60;;;;;;4945414;29;20063;-70
2022/04/05 05:22:48;;;;;;;10.27;2.30;;;9.50;89.50;;;;;;4945325;29;20043;-69
2022/04/05 05:25:16;;;;;;;9.57;1.90;;;9.50;89.50;;;;;;4941327;29;20050;-69
2022/04/05 05:27:43;;;;;;;10.70;2.17;;;9.60;89.40;;;;;;4954181;29;20047;-71
2022/04/05 05:30:11;;;;;;;5.65;1.52;;;9.50;89.30;;;;;;4954218;29;20051;-68
2022/04/05 05:32:46;;;;;;;10.02;2.22;;;9.50;89.20;;;;;;4946348;29;20039;-68
2022/04/05 05:35:14;;;;;;;7.55;2.20;;;9.50;89.00;;;;;;4944212;29;20043;-68
2022/04/05 05:37:42;;;;;;;9.98;2.00;;;9.60;89.00;;;;;;4953019;28;20059;-69
2022/04/05 05:40:12;;;;;;;11.70;2.30;;;9.60;88.90;;;;;;4944193;29;20481;-69
2022/04/05 05:42:46;;;;;;;13.45;2.28;;;9.60;88.80;;;;;;4933027;29;20055;-69
2022/04/05 05:45:14;;;;;;;7.57;1.60;;;9.50;88.80;;;;;;4934452;29;20075;-69
2022/04/05 05:47:42;;;;;;;11.27;2.95;;;9.60;88.80;;;;;;4945604;29;20508;-69
2022/04/05 05:50:12;;;;;;;18.05;2.90;;;9.50;88.70;;;;;;4950596;29;20043;-69
2022/04/05 05:52:41;;;;;;;13.57;2.53;;;9.50;88.70;;;;;;4938803;29;20054;-69
2022/04/05 05:55:10;;;;;;;20.38;2.97;;;9.50;88.80;;;;;;4942161;29;20418;-69
2022/04/05 05:57:38;;;;;;;11.85;2.75;;;9.50;88.70;;;;;;4946983;29;20058;-68
2022/04/05 06:00:09;;;;;;;12.27;2.70;;;9.50;88.80;;;;;;4945050;29;20047;-69
2022/04/05 06:02:41;;;;;;;16.10;2.00;;;9.50;88.70;;;;;;4934618;29;20048;-69
2022/04/05 06:05:09;;;;;;;18.40;3.22;;;9.40;88.90;;;;;;4940241;29;20048;-72
2022/04/05 06:07:42;;;;;;;11.85;2.90;;;9.40;89.00;;;;;;4948497;29;20047;-69
2022/04/05 06:10:11;;;;;;;13.98;3.45;;;9.30;89.20;;;;;;4947772;29;20116;-69
2022/04/05 06:12:41;;;;;;;13.15;3.90;;;9.30;89.30;;;;;;4944173;28;20058;-69
2022/04/05 06:15:12;;;;;;;18.08;4.78;;;9.30;89.50;;;;;;4948022;29;20062;-69
2022/04/05 06:17:42;;;;;;;18.83;3.95;;;9.30;89.70;;;;;;4942444;29;20062;-68
2022/04/05 06:20:11;;;;;;;10.15;3.05;;;9.20;89.80;;;;;;4946553;28;20046;-69
2022/04/05 06:22:58;;;;;;;9.73;2.53;;;9.20;90.10;;;;;;4963312;28;20473;-69
2022/04/05 06:25:28;;;;;;;10.10;2.72;;;9.20;90.30;;;;;;4945758;29;20046;-69
2022/04/05 06:27:57;;;;;;;12.82;2.83;;;9.20;90.50;;;;;;4947327;29;20437;-69
2022/04/05 06:30:25;;;;;;;9.00;2.08;;;9.20;90.60;;;;;;4942889;29;20044;-69
2022/04/05 06:33:14;;;;;;;8.40;2.47;;;9.20;90.70;;;;;;4941551;29;20047;-69
2022/04/05 06:35:47;;;;;;;8.32;2.60;;;9.20;90.70;;;;;;4940552;29;20055;-69
2022/04/05 06:38:15;;;;;;;;;;;9.20;90.80;;;;;;4943858;29;20048;-69
2022/04/05 06:40:43;;;;;;;9.43;2.03;;;9.10;90.80;;;;;;4944226;29;20296;-69
2022/04/05 06:43:13;;;;;;;6.85;2.05;;;9.10;90.90;;;;;;4943968;29;20078;-69
2022/04/05 06:45:42;;;;;;;8.18;1.67;;;9.10;90.80;;;;;;4945692;29;20043;-69
2022/04/05 06:48:10;;;;;;;8.57;3.05;;;9.10;90.70;;;;;;4945766;29;20055;-69
2022/04/05 06:50:38;;;;;;;10.07;3.15;;;9.10;90.80;;;;;;4943260;29;20059;-67
2022/04/05 06:53:07;;;;;;;11.73;3.83;;;9.00;90.90;;;;;;4941854;29;20047;-68
2022/04/05 06:55:35;;;;;;;7.25;2.40;;;9.00;91.00;;;;;;4943684;28;20739;-70
2022/04/05 06:58:03;;;;;;;9.60;1.73;;;9.10;91.10;;;;;;4944365;29;20059;-70
2022/04/05 07:00:33;;;;;;;3.88;1.27;;;9.10;91.00;;;;;;4945207;29;20043;-68
2022/04/05 07:03:01;;;;;;;7.63;2.33;;;9.10;90.90;;;;;;4951733;29;20066;-69
2022/04/05 07:05:29;;;;;;;11.52;2.40;;;9.10;90.80;;;;;;4947085;29;20487;-69
2022/04/05 07:07:56;;;;;;;9.77;1.95;;;9.10;90.70;;;;;;4943477;29;20055;-68
2022/04/05 07:10:24;;;;;;;5.65;1.83;;;9.10;90.60;;;;;;4946189;29;20047;-69
2022/04/05 07:12:52;;;;;;;6.70;1.73;;;9.00;90.60;;;;;;4949853;29;20437;-69
2022/04/05 07:15:20;;;;;;;6.00;1.75;;;9.10;90.60;;;;;;4947905;29;20050;-69
2022/04/05 07:17:48;;;;;;;9.40;2.03;;;9.00;90.40;;;;;;4939062;29;20490;-69
2022/04/05 07:20:30;;;;;;;9.10;2.40;;;9.00;90.20;;;;;;4955034;29;20047;-70
2022/04/05 07:22:57;;;;;;;5.15;1.70;;;8.90;90.30;;;;;;4946497;29;20549;-69
2022/04/05 07:25:26;;;;;;;8.43;2.33;;;9.00;90.40;;;;;;4953506;28;20066;-68
2022/04/05 07:27:54;;;;;;;13.75;2.30;;;9.00;90.30;;;;;;4941404;28;20047;-69
2022/04/05 07:30:21;;;;;;;8.25;2.10;;;9.00;90.20;;;;;;4949587;29;20502;-69
2022/04/05 07:32:49;;;;;;;6.43;1.90;;;9.00;90.00;;;;;;4934201;29;20054;-70
2022/04/05 07:35:18;;;;;;;12.40;2.45;;;9.10;89.90;;;;;;4950740;29;20516;-69
2022/04/05 07:37:46;;;;;;;11.32;1.92;;;9.10;89.90;;;;;;4946235;29;20059;-69
2022/04/05 07:40:14;;;;;;;13.73;2.17;;;9.10;89.70;;;;;;4945019;29;20051;-69
2022/04/05 07:42:43;;;;;;;12.02;2.35;;;9.10;89.70;;;;;;4948416;29;20054;-68
2022/04/05 07:45:12;;;;;;;12.30;2.40;;;9.10;89.60;;;;;;4951520;28;20051;-70
2022/04/05 07:47:41;;;;;;;8.45;2.08;;;9.20;89.50;;;;;;4938830;29;20047;-70
2022/04/05 07:50:09;;;;;;;19.13;3.33;;;9.10;89.20;;;;;;4936338;29;20054;-69
2022/04/05 07:52:37;;;;;;;8.52;2.30;;;9.20;89.30;;;;;;4951176;29;20047;-70
2022/04/05 07:55:06;;;;;;;9.10;2.08;;;9.20;89.30;;;;;;4954987;29;20051;-69
2022/04/05 07:57:36;;;;;;;14.05;2.80;;;9.30;89.20;;;;;;4941627;29;20054;-69
2022/04/05 08:00:05;;;;;;;12.50;2.17;;;9.30;89.00;;;;;;4936264;29;20059;-70
2022/04/05 08:02:39;;;;;;;10.48;2.15;;;9.30;88.60;;;;;;4942877;29;20039;-69
2022/04/05 08:05:14;;;;;;;16.23;2.70;;;9.40;88.20;;;;;;4936637;29;20047;-70
2022/04/05 08:07:43;;;;;;;8.80;2.00;;;9.40;88.00;;;;;;4935043;29;20505;-70
2022/04/05 08:10:13;;;;;;;10.45;2.15;;;9.40;87.70;;;;;;4936854;29;20303;-69
2022/04/05 08:12:44;;;;;;;9.00;2.05;;;9.40;87.50;;;;;;4942300;29;20405;-69
2022/04/05 08:15:14;;;;;;;17.17;2.25;;;9.50;87.30;;;;;;4937536;29;20063;-70
2022/04/05 08:17:42;;;;;;;15.98;2.30;;;9.50;87.20;;;;;;4951951;29;20035;-69
2022/04/05 08:20:10;;;;;;;5.68;1.75;;;9.60;86.90;;;;;;4954240;28;20126;-70
2022/04/05 08:22:39;;;;;;;12.27;2.63;;;9.60;87.00;;;;;;4953377;29;20051;-70
2022/04/05 08:25:08;;;;;;;20.08;3.08;;;9.60;86.30;;;;;;4954752;28;20059;-70
2022/04/05 08:27:36;;;;;;;9.02;1.40;;;9.60;86.30;;;;;;4953125;29;20054;-70
2022/04/05 08:30:05;;;;;;;14.02;2.85;;;9.80;86.10;;;;;;4936897;29;20047;-70
2022/04/05 08:32:36;;;;;;;12.00;2.10;;;9.80;85.40;;;;;;4938856;29;20485;-70
2022/04/05 08:35:05;;;;;;;15.38;2.10;;;9.90;85.20;;;;;;4955043;29;20051;-70
2022/04/05 08:37:33;;;;;;;21.88;2.85;;;10.00;84.80;;;;;;4954615;29;20043;-70
2022/04/05 08:40:06;;;;;;;16.95;2.60;;;10.00;84.70;;;;;;4968919;28;20051;-71
2022/04/05 08:42:34;;;;;;;;;;;10.10;84.00;;;;;;4938974;29;20062;-69
2022/04/05 08:45:10;;;;;;;16.38;2.30;;;10.10;83.60;;;;;;4935903;29;19922;-70
2022/04/05 08:47:48;;;;;;;11.27;1.52;;;10.10;83.20;;;;;;4936691;29;20401;-70
2022/04/05 08:50:20;;;;;;;19.40;3.35;;;10.10;83.20;;;;;;4935849;29;20050;-70
2022/04/05 08:52:49;;;;;;;12.13;3.28;;;10.10;82.80;;;;;;4951307;29;20048;-70
2022/04/05 08:55:17;;;;;;;10.18;2.00;;;10.10;83.00;;;;;;4954382;29;20409;-70
2022/04/05 08:57:45;;;;;;;7.05;2.35;;;10.20;82.90;;;;;;4943767;28;20438;-69
2022/04/05 09:00:15;;;;;;;11.55;2.33;;;10.30;82.90;;;;;;4935811;29;20062;-70
2022/04/05 09:02:52;;;;;;;14.77;3.15;;;10.30;82.60;;;;;;4936391;29;20047;-70
2022/04/05 09:05:28;;;;;;;16.25;2.60;;;10.40;82.70;;;;;;4954282;29;20047;-70
2022/04/05 09:08:14;;;;;;;11.30;2.08;;;10.50;82.60;;;;;;4941667;29;20054;-70
2022/04/05 09:10:43;;;;;;;14.90;2.65;;;10.50;81.90;;;;;;4954301;29;20047;-70
2022/04/05 09:13:12;;;;;;;15.18;2.78;;;10.60;81.20;;;;;;4944502;29;20047;-70
2022/04/05 09:15:41;;;;;;;13.13;2.55;;;10.60;81.00;;;;;;4950994;29;20058;-70
2022/04/05 09:18:09;;;;;;;18.55;2.80;;;10.60;81.20;;;;;;4950813;28;20055;-71
2022/04/05 09:20:48;;;;;;;10.88;2.38;;;10.70;81.40;;;;;;4954133;29;20528;-70
2022/04/05 09:23:31;;;;;;;10.52;2.05;;;10.70;81.30;;;;;;4939168;29;20067;-71
2022/04/05 09:26:03;;;;;;;12.23;2.15;;;10.80;81.00;;;;;;4954277;29;20374;-71
2022/04/05 09:28:33;;;;;;;17.67;2.42;;;11.00;80.20;;;;;;4937966;29;20043;-71
2022/04/05 09:31:03;;;;;;;21.73;3.08;;;11.10;79.50;;;;;;4935125;29;20048;-70
2022/04/05 09:33:33;;;;;;;12.70;2.03;;;11.30;78.80;;;;;;4935819;29;20062;-71
2022/04/05 09:36:10;;;;;;;11.10;2.22;;;11.40;78.80;;;;;;4935967;29;20054;-70
2022/04/05 09:38:40;;;;;;;11.95;2.83;;;11.50;76.60;;;;;;4936327;29;20490;-71
2022/04/05 09:41:20;;;;;;;10.10;2.30;;;11.60;75.90;;;;;;4939536;29;20158;-70
2022/04/05 09:43:58;;;;;;;11.70;1.98;;;11.60;75.10;;;;;;4949859;29;20516;-70
2022/04/05 09:46:28;;;;;;;12.23;2.55;;;11.60;75.70;;;;;;4951615;29;20048;-70
2022/04/05 09:49:12;;;;;;;15.45;2.13;;;11.50;75.70;;;;;;4945899;29;20063;-71
2022/04/05 09:51:46;;;;;;;16.40;2.20;;;11.50;75.10;;;;;;4933749;29;20051;-70
2022/04/05 09:54:28;;;;;;;16.25;2.40;;;11.40;74.70;;;;;;4946932;29;20051;-70
2022/04/05 09:57:06;;;;;;;17.67;2.03;;;11.30;75.50;;;;;;4953912;29;20076;-70
2022/04/05 09:59:38;;;;;;;12.95;2.05;;;11.50;75.40;;;;;;4953771;29;20062;-70
2022/04/05 10:02:14;;;;;;;12.15;1.77;;;11.50;75.50;;;;;;4952613;29;20043;-70
2022/04/05 10:04:59;;;;;;;9.13;1.35;;;11.60;74.00;;;;;;4948737;29;20494;-71
2022/04/05 10:07:30;;;;;;;15.77;2.33;;;11.50;72.90;;;;;;4934709;29;20054;-70
2022/04/05 10:10:01;;;;;;;15.30;2.00;;;11.50;72.50;;;;;;4942430;29;20062;-70
2022/04/05 10:12:28;;;;;;;9.10;1.50;;;11.30;72.60;;;;;;4953807;29;20055;-70
2022/04/05 10:14:57;;;;;;;8.57;1.70;;;11.20;72.80;;;;;;4953858;29;20043;-71
2022/04/05 10:17:26;;;;;;;13.13;2.00;;;11.20;72.70;;;;;;4953644;29;20047;-70
2022/04/05 10:19:59;;;;;;;8.35;1.30;;;11.10;72.60;;;;;;4953500;29;20051;-69
2022/04/05 10:22:26;;;;;;;12.87;2.37;;;11.20;72.00;;;;;;4943428;29;20048;-70
2022/04/05 10:24:55;;;;;;;11.55;2.40;;;11.30;73.10;;;;;;4934477;29;20767;-70
2022/04/05 10:27:25;;;;;;;20.45;2.20;;;11.40;73.00;;;;;;4934557;29;20048;-70
2022/04/05 10:30:15;;;;;;;7.30;1.73;;;11.70;72.50;;;;;;4935538;29;20051;-71
2022/04/05 10:32:51;;;;;;;13.38;2.00;;;11.90;70.70;;;;;;4933803;29;20055;-70
2022/04/05 10:35:23;;;;;;;7.57;1.13;;;12.00;70.90;;;;;;4936853;29;20058;-70
2022/04/05 10:38:09;;;;;;;13.00;1.60;;;12.10;69.40;;;;;;4937591;29;20494;-69
2022/04/05 10:40:36;;;;;;;12.32;1.92;;;12.20;69.70;;;;;;4937988;29;20373;-70
2022/04/05 10:43:17;;;;;;;8.90;1.02;;;12.30;68.50;;;;;;4936641;29;20047;-70
2022/04/05 10:45:46;;;;;;;10.88;1.27;;;12.30;68.40;;;;;;4948116;29;20497;-70
2022/04/05 10:48:20;;;;;;;10.63;1.80;;;12.30;68.20;;;;;;4937698;29;20044;-70
2022/04/05 10:51:01;;;;;;;9.95;1.98;;;12.30;68.30;;;;;;4942567;29;20051;-70
2022/04/05 10:53:36;;;;;;;8.15;1.55;;;12.30;67.50;;;;;;4937297;29;20505;-70
2022/04/05 10:56:03;;;;;;;10.93;1.98;;;12.40;66.50;;;;;;4950122;29;20051;-70
2022/04/05 10:58:32;;;;;;;4.43;1.00;;;12.40;67.00;;;;;;4931356;29;20058;-70
2022/04/05 11:01:23;;;;;;;11.95;1.60;;;12.50;67.00;;;;;;4942326;29;20051;-70
2022/04/05 11:04:16;;;;;;;12.85;1.83;;;12.70;66.90;;;;;;4946990;29;20047;-70
2022/04/05 11:07:02;;;;;;;12.90;2.08;;;12.80;66.70;;;;;;4931540;28;20414;-70
2022/04/05 11:09:53;;;;;;;8.55;1.35;;;13.10;66.10;;;;;;4942370;29;20051;-70
2022/04/05 11:12:27;;;;;;;11.13;1.60;;;13.30;65.00;;;;;;4949907;29;20386;-71
2022/04/05 11:15:03;;;;;;;13.77;1.60;;;13.30;63.90;;;;;;4955247;29;20397;-70
2022/04/05 11:17:33;;;;;;;9.95;1.48;;;13.20;64.30;;;;;;4940386;29;20058;-70
2022/04/05 11:20:02;;;;;;;6.63;1.08;;;13.10;64.40;;;;;;4945003;29;20051;-70
2022/04/05 11:22:31;;;;;;;7.65;1.10;;;13.10;64.30;;;;;;4944608;29;20050;-70
2022/04/05 11:25:06;;;;;;;17.83;2.20;;;13.10;64.30;;;;;;4956038;29;20058;-70
2022/04/05 11:27:46;;;;;;;10.00;1.67;;;13.20;64.60;;;;;;4956218;29;20051;-70
2022/04/05 11:30:39;;;;;;;7.60;1.50;;;13.30;63.70;;;;;;4946871;29;20051;-70
2022/04/05 11:33:16;;;;;;;7.65;1.50;;;13.50;64.10;;;;;;4936700;29;20048;-70
2022/04/05 11:35:52;;;;;;;3.30;0.75;;;13.60;64.00;;;;;;4939114;29;20066;-70
2022/04/05 11:38:20;;;;;;;12.05;1.20;;;13.70;62.40;;;;;;4944166;28;20074;-71
2022/04/05 11:41:03;;;;;;;7.90;1.27;;;13.60;63.10;;;;;;4936597;29;20044;-70
2022/04/05 11:43:34;;;;;;;7.00;0.98;;;13.60;62.90;;;;;;4935406;29;20048;-70
2022/04/05 11:46:12;;;;;;;2.55;0.68;;;13.70;63.30;;;;;;4935390;29;20055;-69
2022/04/05 11:48:50;;;;;;;4.85;0.70;;;13.80;63.00;;;;;;4944394;29;20062;-70
2022/04/05 11:51:20;;;;;;;2.80;0.60;;;13.80;62.70;;;;;;4954687;28;20062;-70
2022/04/05 11:53:47;;;;;;;2.67;0.75;;;14.00;62.40;;;;;;4936494;29;20421;-71
2022/04/05 11:56:21;;;;;;;2.08;0.60;;;14.00;59.80;;;;;;4941551;29;20412;-71
2022/04/05 11:58:57;;;;;;;3.65;0.55;;;14.00;60.30;;;;;;4935853;29;20084;-70
2022/04/05 12:01:35;;;;;;;2.92;0.75;;;14.00;60.20;;;;;;4947243;29;20497;-70
2022/04/05 12:04:07;;;;;;;3.75;0.45;;;13.90;60.80;;;;;;4946205;29;20521;-70
2022/04/05 12:06:39;;;;;;;0.52;0.10;;;13.90;61.00;;;;;;4947694;29;20043;-71
2022/04/05 12:09:10;;;;;;;1.20;0.40;;;14.00;61.30;;;;;;4935035;29;20051;-69
2022/04/05 12:11:45;;;;;;;2.13;0.35;;;14.00;60.90;;;;;;4937969;29;20520;-70
2022/04/05 12:14:21;;;;;;;0.77;0.28;;;14.20;61.80;;;;;;4936039;29;20052;-71
2022/04/05 12:16:55;;;;;;;2.85;0.40;;;14.50;61.80;;;;;;4936700;29;20047;-71
2022/04/05 12:19:24;;;;;;;1.67;0.43;;;14.70;60.70;;;;;;4941678;29;20050;-71
2022/04/05 12:21:54;;;;;;;4.07;0.80;;;14.40;59.90;;;;;;4953642;28;20058;-71
2022/04/05 12:24:23;;;;;;;0.75;0.32;;;14.50;61.00;;;;;;4946436;29;20044;-70
2022/04/05 12:26:51;;;;;;;1.33;0.30;;;14.70;61.70;;;;;;4939774;29;20451;-71
2022/04/05 12:29:19;;;;;;;2.85;0.43;;;15.20;60.60;;;;;;4941677;29;20043;-71
2022/04/05 12:31:46;;;;;;;1.60;0.40;;;15.60;58.40;;;;;;4935575;29;20378;-70
2022/04/05 12:34:15;;;;;;;0.80;0.30;;;15.60;58.00;;;;;;4935964;29;20047;-71
2022/04/05 12:36:53;;;;;;;2.65;0.30;;;15.40;57.20;;;;;;4946652;29;20047;-72
2022/04/05 12:39:24;;;;;;;2.03;0.30;;;14.90;57.80;;;;;;4947811;29;20080;-69
2022/04/05 12:42:07;;;;;;;2.10;0.50;;;14.30;58.60;;;;;;4937500;29;20844;-70
2022/04/05 12:44:39;;;;;;;1.00;0.30;;;13.80;61.40;;;;;;4934818;29;20055;-70
2022/04/05 12:47:20;;;;;;;0.15;0.00;;;13.30;62.90;;;;;;4935697;29;20054;-70
2022/04/05 12:49:49;;;;;;;2.45;0.35;;;13.40;63.00;;;;;;4943891;29;20050;-70
2022/04/05 12:52:19;;;;;;;0.25;0.10;;;13.50;63.40;;;;;;4954440;29;20051;-70
2022/04/05 12:54:49;;;;;;;0.50;0.30;;;13.50;62.60;;;;;;4947228;29;20047;-70
2022/04/05 12:57:40;;;;;;;0.65;0.32;;;13.50;61.70;;;;;;4934006;29;20058;-70
2022/04/05 13:00:16;;;;;;;5.78;0.50;;;13.30;62.10;;;;;;4946645;29;20051;-70
2022/04/05 13:02:55;;;;;;;0.68;0.30;;;13.30;62.90;;;;;;4935457;29;20048;-71
2022/04/05 13:08:29;;;;;;;0.98;0.30;;;13.30;63.40;;;;;;4954132;29;20058;-70
2022/04/05 13:10:57;;;;;;;4.97;0.68;;;13.00;64.20;;;;;;4946272;28;20409;-70